Time;durP1;ratioP1;P1;durP2;ratioP2;P2;SDS_P1;SDS_P2;PMS_P1;PMS_P2;Temp;Humidity;BMP_temperature;BMP_pressure;BME280_temperature;BME280_humidity;BME280_pressure;Samples;Min_cycle;Max_cycle;Signal;HPM_P1;HPM_P2
2023/08/07 00:02:23;;;;;;;;;;;15.50;99.90;;;;;;5034958;28;20300;-44
2023/08/07 00:04:49;;;;;;;;;;;15.50;99.90;;;;;;5033771;28;19929;-44
2023/08/07 00:07:16;;;;;;;;;;;15.50;99.90;;;;;;5044983;28;19925;-45
2023/08/07 00:09:43;;;;;;;;;;;15.50;99.90;;;;;;5034393;28;19933;-44
2023/08/07 00:12:09;;;;;;;;;;;15.50;99.90;;;;;;5033376;28;19925;-44
2023/08/07 00:14:37;;;;;;;;;;;15.50;99.90;;;;;;5034344;28;19956;-44
2023/08/07 00:17:05;;;;;;;;;;;15.50;99.90;;;;;;5032674;28;20393;-42
2023/08/07 00:19:32;;;;;;;;;;;15.40;99.90;;;;;;5034460;28;20272;-43
2023/08/07 00:21:58;;;;;;;;;;;15.50;99.90;;;;;;5013693;28;19933;-44
2023/08/07 00:24:25;;;;;;;;;;;15.40;99.90;;;;;;5014602;28;19926;-44
2023/08/07 00:26:52;;;;;;;;;;;15.40;99.90;;;;;;5029786;28;19976;-44
2023/08/07 00:29:19;;;;;;;;;;;15.40;99.90;;;;;;5042821;28;19929;-44
2023/08/07 00:31:47;;;;;;;;;;;15.40;99.90;;;;;;5033212;28;19975;-44
2023/08/07 00:34:13;;;;;;;;;;;15.40;99.90;;;;;;5033953;28;20430;-43
2023/08/07 00:36:40;;;;;;;;;;;15.40;99.90;;;;;;5038922;28;19925;-43
2023/08/07 00:39:07;;;;;;;;;;;15.40;99.90;;;;;;5038172;28;19925;-43
2023/08/07 00:41:34;;;;;;;;;;;15.40;99.90;;;;;;5033756;28;19932;-44
2023/08/07 00:44:01;;;;;;;;;;;15.30;99.90;;;;;;5034051;28;19929;-44
2023/08/07 00:46:27;;;;;;;;;;;15.40;99.90;;;;;;5037516;28;19925;-44
2023/08/07 00:48:55;;;;;;;;;;;15.30;99.90;;;;;;5040317;28;19967;-44
2023/08/07 00:51:22;;;;;;;;;;;15.40;99.90;;;;;;5033939;28;19956;-44
2023/08/07 00:53:49;;;;;;;;;;;15.40;99.90;;;;;;5013960;28;20376;-44
2023/08/07 00:56:15;;;;;;;;;;;15.40;99.90;;;;;;5030648;28;20586;-44
2023/08/07 00:58:42;;;;;;;;;;;15.30;99.90;;;;;;5053759;28;20350;-44
2023/08/07 01:01:09;;;;;;;;;;;15.30;99.90;;;;;;5053774;28;19932;-44
2023/08/07 01:03:36;;;;;;;;;;;15.30;99.90;;;;;;5053634;28;19924;-44
2023/08/07 01:06:04;;;;;;;;;;;15.20;99.90;;;;;;5038461;28;19925;-43
2023/08/07 01:08:31;;;;;;;;;;;15.20;99.90;;;;;;5046281;28;19968;-44
2023/08/07 01:11:03;;;;;;;;;;;15.20;99.90;;;;;;5031908;28;20328;-44
2023/08/07 01:13:32;;;;;;;;;;;15.20;99.90;;;;;;5037675;28;19959;-44
2023/08/07 01:16:00;;;;;;;;;;;15.20;99.90;;;;;;5041770;28;19925;-43
2023/08/07 01:18:27;;;;;;;;;;;15.20;99.90;;;;;;5033843;28;19974;-44
2023/08/07 01:20:53;;;;;;;;;;;15.10;99.90;;;;;;5027900;28;20403;-44
2023/08/07 01:23:21;;;;;;;;;;;15.20;99.90;;;;;;5031362;28;19980;-44
2023/08/07 01:25:48;;;;;;;;;;;15.20;99.90;;;;;;5032688;28;20495;-44
2023/08/07 01:28:17;;;;;;;;;;;15.10;99.90;;;;;;5039049;28;20357;-44
2023/08/07 01:30:45;;;;;;;;;;;15.10;99.90;;;;;;5031980;28;19968;-44
2023/08/07 01:33:13;;;;;;;;;;;15.10;99.90;;;;;;5032818;28;19936;-44
2023/08/07 01:35:41;;;;;;;;;;;15.10;99.90;;;;;;5031627;28;19932;-44
2023/08/07 01:38:08;;;;;;;;;;;15.10;99.90;;;;;;5047057;28;19925;-44
2023/08/07 01:40:36;;;;;;;;;;;15.10;99.90;;;;;;5031255;28;19925;-44
2023/08/07 01:43:03;;;;;;;;;;;15.00;99.90;;;;;;5030771;28;19929;-43
2023/08/07 01:45:29;;;;;;;;;;;15.00;99.90;;;;;;5033127;28;20300;-44
2023/08/07 01:47:56;;;;;;;;;;;15.00;99.90;;;;;;5047400;28;19924;-44
2023/08/07 01:50:23;;;;;;;;;;;15.00;99.90;;;;;;5046236;28;19926;-44
2023/08/07 01:52:50;;;;;;;;;;;15.00;99.90;;;;;;5031575;28;19925;-44
2023/08/07 01:55:17;;;;;;;;;;;15.00;99.90;;;;;;5032455;28;20384;-44
2023/08/07 01:57:45;;;;;;;;;;;15.00;99.90;;;;;;5043723;28;19929;-43
2023/08/07 02:00:12;;;;;;;;;;;15.00;99.90;;;;;;5051001;28;19951;-45
2023/08/07 02:02:39;;;;;;;;;;;15.00;99.90;;;;;;5051980;28;19925;-44
2023/08/07 02:05:06;;;;;;;;;;;15.00;99.90;;;;;;5046339;28;19925;-43
2023/08/07 02:07:32;;;;;;;;;;;14.90;99.90;;;;;;5044766;28;19924;-44
2023/08/07 02:09:59;;;;;;;;;;;14.90;99.90;;;;;;5044381;28;19925;-44
2023/08/07 02:12:27;;;;;;;;;;;14.90;99.90;;;;;;5032638;28;19983;-44
2023/08/07 02:14:55;;;;;;;;;;;14.80;99.90;;;;;;5031199;28;19932;-44
2023/08/07 02:17:22;;;;;;;;;;;14.90;99.90;;;;;;5043817;28;19975;-44
2023/08/07 02:19:49;;;;;;;;;;;14.80;99.90;;;;;;5039085;28;19940;-44
2023/08/07 02:22:15;;;;;;;;;;;14.80;99.90;;;;;;5042182;28;20000;-44
2023/08/07 02:24:42;;;;;;;;;;;14.80;99.90;;;;;;5035756;28;20446;-44
2023/08/07 02:27:09;;;;;;;;;;;14.70;99.90;;;;;;5042445;28;19925;-44
2023/08/07 02:29:35;;;;;;;;;;;14.70;99.90;;;;;;5035752;28;20296;-44
2023/08/07 02:32:04;;;;;;;;;;;14.60;99.90;;;;;;5038857;28;20376;-44
2023/08/07 02:34:30;;;;;;;;;;;14.60;99.90;;;;;;5042581;28;19987;-44
2023/08/07 02:36:57;;;;;;;;;;;14.60;99.90;;;;;;5034631;28;19925;-44
2023/08/07 02:39:23;;;;;;;;;;;14.60;99.90;;;;;;5031133;28;19995;-44
2023/08/07 02:41:50;;;;;;;;;;;14.60;99.90;;;;;;5031738;28;19965;-44
2023/08/07 02:44:18;;;;;;;;;;;14.60;99.90;;;;;;5029987;28;20339;-44
2023/08/07 02:46:45;;;;;;;;;;;14.50;99.90;;;;;;5034671;28;19929;-44
2023/08/07 02:49:13;;;;;;;;;;;14.50;99.90;;;;;;5032158;28;19925;-44
2023/08/07 02:51:39;;;;;;;;;;;14.50;99.90;;;;;;5032201;28;19932;-43
2023/08/07 02:54:06;;;;;;;;;;;14.40;99.90;;;;;;5031739;28;19976;-44
2023/08/07 02:56:33;;;;;;;;;;;14.40;99.90;;;;;;5035098;28;19925;-44
2023/08/07 02:59:01;;;;;;;;;;;14.40;99.90;;;;;;5052121;28;19978;-44
2023/08/07 03:01:28;;;;;;;;;;;14.40;99.90;;;;;;5022043;28;20412;-44
2023/08/07 03:03:55;;;;;;;;;;;14.40;99.90;;;;;;5031113;28;19925;-43
2023/08/07 03:06:23;;;;;;;;;;;14.40;99.90;;;;;;5032548;28;19925;-44
2023/08/07 03:08:49;;;;;;;;;;;14.30;99.90;;;;;;5034101;28;19929;-42
2023/08/07 03:11:16;;;;;;;;;;;14.40;99.90;;;;;;5018983;28;19933;-44
2023/08/07 03:13:44;;;;;;;;;;;14.30;99.90;;;;;;5035848;28;20343;-43
2023/08/07 03:16:10;;;;;;;;;;;14.40;99.90;;;;;;5039953;28;19977;-44
2023/08/07 03:18:37;;;;;;;;;;;14.40;99.90;;;;;;5038289;28;20242;-44
2023/08/07 03:21:04;;;;;;;;;;;14.30;99.90;;;;;;5035465;28;19979;-44
2023/08/07 03:23:32;;;;;;;;;;;14.30;99.90;;;;;;5054391;28;19924;-44
2023/08/07 03:26:05;;;;;;;;;;;14.30;99.90;;;;;;5048359;28;19925;-43
2023/08/07 03:28:31;;;;;;;;;;;14.30;99.90;;;;;;5068455;28;19932;-43
2023/08/07 03:30:58;;;;;;;;;;;14.30;99.90;;;;;;5046984;28;19964;-43
2023/08/07 03:33:25;;;;;;;;;;;14.30;99.90;;;;;;5042587;28;20412;-43
2023/08/07 03:35:51;;;;;;;;;;;14.30;99.90;;;;;;5040257;28;20450;-44
2023/08/07 03:38:18;;;;;;;;;;;14.30;99.90;;;;;;5042645;28;19925;-44
2023/08/07 03:40:46;;;;;;;;;;;14.30;99.90;;;;;;5036308;28;19925;-43
2023/08/07 03:43:13;;;;;;;;;;;14.30;99.90;;;;;;5033717;28;20321;-44
2023/08/07 03:45:40;;;;;;;;;;;14.30;99.90;;;;;;5033999;28;19987;-43
2023/08/07 03:48:06;;;;;;;;;;;14.30;99.90;;;;;;5047963;28;19924;-44
2023/08/07 03:50:34;;;;;;;;;;;14.30;99.90;;;;;;5042060;28;19983;-43
2023/08/07 03:53:01;;;;;;;;;;;14.30;99.90;;;;;;5053755;28;19932;-43
2023/08/07 03:55:28;;;;;;;;;;;14.30;99.90;;;;;;5042123;28;19971;-44
2023/08/07 03:57:56;;;;;;;;;;;14.30;99.90;;;;;;5041730;28;19979;-44
2023/08/07 04:00:22;;;;;;;;;;;14.40;99.90;;;;;;5042811;28;19940;-43
2023/08/07 04:02:49;;;;;;;;;;;14.40;99.90;;;;;;5023429;28;20373;-43
2023/08/07 04:05:16;;;;;;;;;;;14.40;99.90;;;;;;5031643;28;19929;-42
2023/08/07 04:07:42;;;;;;;;;;;14.40;99.90;;;;;;5035076;28;19979;-43
2023/08/07 04:10:09;;;;;;;;;;;14.40;99.90;;;;;;5039359;28;19948;-43
2023/08/07 04:12:36;;;;;;;;;;;14.40;99.90;;;;;;5038651;28;19929;-43
2023/08/07 04:15:05;;;;;;;;;;;14.50;99.90;;;;;;5045858;28;19983;-43
2023/08/07 04:17:31;;;;;;;;;;;14.50;99.90;;;;;;5042566;28;19935;-44
2023/08/07 04:19:58;;;;;;;;;;;14.50;99.90;;;;;;5046757;28;19971;-43
2023/08/07 04:22:25;;;;;;;;;;;14.50;99.90;;;;;;5032810;28;20673;-43
2023/08/07 04:24:51;;;;;;;;;;;14.50;99.90;;;;;;5034296;28;19925;-43
2023/08/07 04:27:18;;;;;;;;;;;14.50;99.90;;;;;;5039345;28;19925;-42
2023/08/07 04:29:45;;;;;;;;;;;14.50;99.90;;;;;;5042927;28;19925;-42
2023/08/07 04:32:13;;;;;;;;;;;14.50;99.90;;;;;;5033288;28;19929;-43
2023/08/07 04:34:39;;;;;;;;;;;14.50;99.90;;;;;;5033156;28;19925;-43
2023/08/07 04:37:06;;;;;;;;;;;14.60;99.90;;;;;;5033824;28;20317;-43
2023/08/07 04:39:33;;;;;;;;;;;14.60;99.90;;;;;;5033900;28;20363;-43
2023/08/07 04:41:59;;;;;;;;;;;14.60;99.90;;;;;;5032349;28;20351;-43
2023/08/07 04:44:26;;;;;;;;;;;14.50;99.90;;;;;;5040648;28;19925;-43
2023/08/07 04:46:53;;;;;;;;;;;14.50;99.90;;;;;;5042349;28;20219;-43
2023/08/07 04:49:21;;;;;;;;;;;14.50;99.90;;;;;;5052755;28;20380;-43
2023/08/07 04:51:47;;;;;;;;;;;14.50;99.90;;;;;;5044474;28;19979;-43
2023/08/07 04:54:14;;;;;;;;;;;14.50;99.90;;;;;;5039579;28;19929;-43
2023/08/07 04:56:44;;;;;;;;;;;14.50;99.90;;;;;;5051874;28;20342;-43
2023/08/07 04:59:10;;;;;;;;;;;14.50;99.90;;;;;;5045010;28;20399;-43
2023/08/07 05:01:37;;;;;;;;;;;14.60;99.90;;;;;;5045810;28;19956;-44
2023/08/07 05:04:04;;;;;;;;;;;14.60;99.90;;;;;;5028501;28;19936;-43
2023/08/07 05:06:33;;;;;;;;;;;14.60;99.90;;;;;;5033509;28;19925;-43
2023/08/07 05:08:59;;;;;;;;;;;14.60;99.90;;;;;;5031754;28;19925;-43
2023/08/07 05:11:26;;;;;;;;;;;14.60;99.90;;;;;;5029047;28;19932;-43
2023/08/07 05:13:53;;;;;;;;;;;14.60;99.90;;;;;;5033118;28;19933;-43
2023/08/07 05:16:19;;;;;;;;;;;14.60;99.90;;;;;;5032489;28;20278;-43
2023/08/07 05:18:46;;;;;;;;;;;14.70;99.90;;;;;;5030783;28;19976;-43
2023/08/07 05:21:13;;;;;;;;;;;14.70;99.90;;;;;;5032759;28;19924;-43
2023/08/07 05:23:41;;;;;;;;;;;14.70;99.90;;;;;;5036398;28;19933;-43
2023/08/07 05:26:08;;;;;;;;;;;14.70;99.90;;;;;;5035968;28;19975;-43
2023/08/07 05:28:34;;;;;;;;;;;14.70;99.90;;;;;;5029307;28;20388;-43
2023/08/07 05:31:01;;;;;;;;;;;14.70;99.90;;;;;;5040664;28;19925;-43
2023/08/07 05:33:28;;;;;;;;;;;14.70;99.90;;;;;;5042101;28;19925;-43
2023/08/07 05:35:55;;;;;;;;;;;14.70;99.90;;;;;;5034218;28;19933;-43
2023/08/07 05:38:22;;;;;;;;;;;14.70;99.90;;;;;;5027975;28;20292;-43
2023/08/07 05:40:50;;;;;;;;;;;14.70;99.90;;;;;;5034661;28;19976;-44
2023/08/07 05:43:17;;;;;;;;;;;14.70;99.90;;;;;;5032343;28;19925;-43
2023/08/07 05:45:46;;;;;;;;;;;14.70;99.90;;;;;;5032754;28;19929;-43
2023/08/07 05:48:12;;;;;;;;;;;14.70;99.90;;;;;;5030959;28;19925;-43
2023/08/07 05:50:39;;;;;;;;;;;14.70;99.90;;;;;;5030158;28;19933;-43
2023/08/07 05:53:06;;;;;;;;;;;14.70;99.90;;;;;;5047755;28;20376;-43
2023/08/07 05:55:32;;;;;;;;;;;14.70;99.90;;;;;;5034000;28;19975;-43
2023/08/07 05:58:00;;;;;;;;;;;14.80;99.90;;;;;;5031546;28;20384;-43
2023/08/07 06:00:28;;;;;;;;;;;14.70;99.90;;;;;;5031295;28;20368;-47
2023/08/07 06:02:55;;;;;;;;;;;14.80;99.90;;;;;;5049639;28;19933;-43
2023/08/07 06:05:21;;;;;;;;;;;14.80;99.90;;;;;;5052419;28;19929;-44
2023/08/07 06:07:48;;;;;;;;;;;14.80;99.90;;;;;;5036166;28;19932;-43
2023/08/07 06:10:15;;;;;;;;;;;14.90;99.90;;;;;;5048110;28;19932;-42
2023/08/07 06:12:41;;;;;;;;;;;14.90;99.90;;;;;;5047753;28;20307;-42
2023/08/07 06:15:10;;;;;;;;;;;15.00;99.90;;;;;;5052498;28;19924;-44
2023/08/07 06:17:39;;;;;;;;;;;15.10;99.90;;;;;;5052211;28;20326;-43
2023/08/07 06:20:08;;;;;;;;;;;15.30;99.90;;;;;;5044054;28;20270;-43
2023/08/07 06:22:35;;;;;;;;;;;15.40;99.90;;;;;;5046161;28;19980;-43
2023/08/07 06:25:02;;;;;;;;;;;15.50;99.90;;;;;;5052464;28;19925;-43
2023/08/07 06:27:30;;;;;;;;;;;15.50;99.90;;;;;;5051229;28;19925;-43
2023/08/07 06:29:57;;;;;;;;;;;15.60;99.90;;;;;;5012675;28;20368;-43
2023/08/07 06:32:25;;;;;;;;;;;15.60;99.90;;;;;;5039821;28;19928;-43
2023/08/07 06:34:52;;;;;;;;;;;15.50;99.90;;;;;;5052372;28;19925;-43
2023/08/07 06:37:18;;;;;;;;;;;15.50;99.90;;;;;;5051024;28;19928;-43
2023/08/07 06:39:46;;;;;;;;;;;15.40;99.90;;;;;;5051088;28;19978;-43
2023/08/07 06:42:12;;;;;;;;;;;15.30;99.90;;;;;;5050879;28;19972;-43
2023/08/07 06:44:39;;;;;;;;;;;15.10;99.90;;;;;;5048654;28;19929;-43
2023/08/07 06:47:06;;;;;;;;;;;15.10;99.90;;;;;;5035422;28;19925;-43
2023/08/07 06:49:34;;;;;;;;;;;15.10;99.90;;;;;;5041837;28;20324;-43
2023/08/07 06:52:01;;;;;;;;;;;15.10;99.90;;;;;;5051772;28;19928;-43
2023/08/07 06:54:28;;;;;;;;;;;15.10;99.90;;;;;;5049451;28;20360;-43
2023/08/07 06:56:55;;;;;;;;;;;15.10;99.90;;;;;;5052363;28;19931;-43
2023/08/07 06:59:21;;;;;;;;;;;15.10;99.90;;;;;;5035928;28;19925;-43
2023/08/07 07:01:49;;;;;;;;;;;15.10;99.90;;;;;;5040101;28;19929;-44
2023/08/07 07:04:15;;;;;;;;;;;15.10;99.90;;;;;;5037593;28;20383;-44
2023/08/07 07:06:43;;;;;;;;;;;15.10;99.90;;;;;;5035650;28;19925;-43
2023/08/07 07:09:10;;;;;;;;;;;15.10;99.90;;;;;;5034903;28;19925;-43
2023/08/07 07:11:37;;;;;;;;;;;15.20;99.90;;;;;;5039856;28;19929;-44
2023/08/07 07:14:04;;;;;;;;;;;15.30;99.90;;;;;;5047871;28;19929;-43
2023/08/07 07:16:31;;;;;;;;;;;15.40;99.90;;;;;;5054447;28;19975;-44
2023/08/07 07:18:59;;;;;;;;;;;15.40;99.90;;;;;;5051233;28;20436;-44
2023/08/07 07:21:26;;;;;;;;;;;15.50;99.90;;;;;;5047574;28;19928;-44
2023/08/07 07:23:54;;;;;;;;;;;15.70;99.90;;;;;;5049172;28;19924;-44
2023/08/07 07:26:21;;;;;;;;;;;15.80;99.90;;;;;;5054389;28;19976;-43
2023/08/07 07:28:48;;;;;;;;;;;15.90;99.90;;;;;;5054426;28;19975;-43
2023/08/07 07:31:14;;;;;;;;;;;16.00;99.90;;;;;;5055171;28;19998;-43
2023/08/07 07:33:41;;;;;;;;;;;15.90;99.90;;;;;;5052527;28;20336;-43
2023/08/07 07:36:07;;;;;;;;;;;15.90;99.90;;;;;;5049223;28;19983;-43
2023/08/07 07:38:33;;;;;;;;;;;15.90;99.90;;;;;;5034262;28;19929;-44
2023/08/07 07:41:04;;;;;;;;;;;15.80;99.90;;;;;;5035245;28;19971;-44
2023/08/07 07:43:31;;;;;;;;;;;15.90;99.90;;;;;;5048504;28;19932;-44
2023/08/07 07:45:58;;;;;;;;;;;15.90;99.90;;;;;;5053667;28;19968;-43
2023/08/07 07:48:25;;;;;;;;;;;16.00;99.90;;;;;;5049678;28;20392;-43
2023/08/07 07:50:53;;;;;;;;;;;16.00;99.90;;;;;;5053879;28;19925;-43
2023/08/07 07:53:20;;;;;;;;;;;16.00;99.90;;;;;;5046342;28;19925;-43
2023/08/07 07:55:47;;;;;;;;;;;16.00;99.90;;;;;;5034493;28;19933;-43
2023/08/07 07:58:15;;;;;;;;;;;16.00;99.90;;;;;;5038241;28;19929;-43
2023/08/07 08:00:42;;;;;;;;;;;15.80;99.90;;;;;;5054583;28;19925;-43
2023/08/07 08:03:09;;;;;;;;;;;15.70;99.90;;;;;;5045038;28;20392;-44
2023/08/07 08:05:35;;;;;;;;;;;15.60;99.90;;;;;;5042165;28;19979;-43
2023/08/07 08:08:02;;;;;;;;;;;15.60;99.90;;;;;;5046206;28;19924;-43
2023/08/07 08:10:29;;;;;;;;;;;15.60;99.90;;;;;;5035881;28;19929;-43
2023/08/07 08:12:55;;;;;;;;;;;15.60;99.90;;;;;;5040709;28;20326;-43
2023/08/07 08:15:24;;;;;;;;;;;15.60;99.90;;;;;;5034401;28;19932;-43
2023/08/07 08:17:50;;;;;;;;;;;15.80;99.90;;;;;;5040682;28;19929;-42
2023/08/07 08:20:19;;;;;;;;;;;15.80;99.90;;;;;;5054524;28;19925;-44
2023/08/07 08:22:45;;;;;;;;;;;16.00;99.90;;;;;;5049567;28;20304;-43
2023/08/07 08:25:12;;;;;;;;;;;16.20;99.90;;;;;;5054356;28;19929;-44
2023/08/07 08:27:39;;;;;;;;;;;16.40;99.90;;;;;;5046092;28;19952;-43
2023/08/07 08:30:06;;;;;;;;;;;16.50;99.90;;;;;;5051298;28;19961;-43
2023/08/07 08:32:34;;;;;;;;;;;16.60;99.90;;;;;;5045801;28;19925;-43
2023/08/07 08:35:01;;;;;;;;;;;16.60;99.90;;;;;;5035960;28;20283;-43
2023/08/07 08:37:29;;;;;;;;;;;16.50;99.90;;;;;;5032503;28;19932;-43
2023/08/07 08:39:55;;;;;;;;;;;16.40;99.90;;;;;;5032731;28;19925;-44
2023/08/07 08:42:22;;;;;;;;;;;16.20;99.90;;;;;;5034917;28;19925;-44
2023/08/07 08:44:49;;;;;;;;;;;16.10;99.90;;;;;;5032777;28;19932;-44
2023/08/07 08:47:16;;;;;;;;;;;16.00;99.90;;;;;;5034020;28;19925;-44
2023/08/07 08:49:46;;;;;;;;;;;16.10;99.90;;;;;;5032688;28;19992;-43
2023/08/07 08:52:12;;;;;;;;;;;16.30;99.90;;;;;;5034067;28;20369;-44
2023/08/07 08:54:39;;;;;;;;;;;16.40;99.90;;;;;;5032851;28;19929;-44
2023/08/07 08:57:06;;;;;;;;;;;16.50;99.90;;;;;;5033382;28;20012;-43
2023/08/07 08:59:33;;;;;;;;;;;16.60;99.90;;;;;;5033850;28;19933;-44
2023/08/07 09:02:00;;;;;;;;;;;16.70;99.90;;;;;;5033306;28;19932;-44
2023/08/07 09:04:27;;;;;;;;;;;16.90;99.90;;;;;;5036632;28;19972;-44
2023/08/07 09:06:55;;;;;;;;;;;17.10;99.90;;;;;;5040328;28;19925;-44
2023/08/07 09:09:22;;;;;;;;;;;17.20;99.90;;;;;;5033546;28;19932;-44
2023/08/07 09:11:49;;;;;;;;;;;17.30;99.90;;;;;;5040405;28;19943;-45
2023/08/07 09:14:16;;;;;;;;;;;17.40;99.90;;;;;;5032146;28;19929;-44
2023/08/07 09:16:43;;;;;;;;;;;17.50;99.90;;;;;;5033216;28;19925;-44
2023/08/07 09:19:09;;;;;;;;;;;17.60;99.90;;;;;;5035111;28;20377;-45
2023/08/07 09:21:36;;;;;;;;;;;17.60;99.90;;;;;;5037494;28;20388;-45
2023/08/07 09:24:04;;;;;;;;;;;17.70;99.90;;;;;;5033176;28;19925;-44
2023/08/07 09:26:32;;;;;;;;;;;17.90;99.90;;;;;;5018734;28;19925;-44
2023/08/07 09:28:59;;;;;;;;;;;18.00;99.90;;;;;;5032824;28;20007;-44
2023/08/07 09:31:26;;;;;;;;;;;18.10;99.90;;;;;;5035224;28;19935;-44
2023/08/07 09:33:53;;;;;;;;;;;18.20;99.90;;;;;;5045587;28;19928;-44
2023/08/07 09:36:19;;;;;;;;;;;18.20;99.90;;;;;;5037096;28;20277;-44
2023/08/07 09:38:50;;;;;;;;;;;18.10;99.90;;;;;;5032935;28;19925;-44
2023/08/07 09:41:19;;;;;;;;;;;18.10;99.90;;;;;;5033863;28;20373;-43
2023/08/07 09:43:46;;;;;;;;;;;18.10;99.90;;;;;;5052990;28;20303;-43
2023/08/07 09:46:13;;;;;;;;;;;18.10;99.90;;;;;;5053142;28;20296;-44
2023/08/07 09:48:40;;;;;;;;;;;18.20;99.90;;;;;;5050373;28;19939;-43
2023/08/07 09:51:08;;;;;;;;;;;18.30;99.90;;;;;;5030916;28;20306;-43
2023/08/07 09:53:35;;;;;;;;;;;18.40;99.90;;;;;;5037155;28;19936;-44
2023/08/07 09:56:02;;;;;;;;;;;18.50;99.90;;;;;;5040324;28;19924;-43
2023/08/07 09:58:30;;;;;;;;;;;18.70;99.90;;;;;;5040721;28;20379;-43
2023/08/07 10:00:59;;;;;;;;;;;18.90;99.90;;;;;;5035451;28;20274;-43
2023/08/07 10:03:25;;;;;;;;;;;18.90;99.90;;;;;;5034454;28;19935;-43
2023/08/07 10:05:52;;;;;;;;;;;18.70;99.90;;;;;;5032242;28;20364;-43
2023/08/07 10:08:19;;;;;;;;;;;18.60;99.90;;;;;;5037812;28;19932;-43
2023/08/07 10:10:46;;;;;;;;;;;18.40;99.90;;;;;;5031206;28;20530;-44
2023/08/07 10:13:13;;;;;;;;;;;18.30;99.90;;;;;;5036266;28;19932;-43
2023/08/07 10:15:41;;;;;;;;;;;18.40;99.90;;;;;;5032029;28;19932;-43
2023/08/07 10:18:08;;;;;;;;;;;18.50;99.90;;;;;;5030627;28;20004;-43
2023/08/07 10:20:35;;;;;;;;;;;18.70;99.90;;;;;;5042553;28;20399;-44
2023/08/07 10:23:03;;;;;;;;;;;18.80;99.90;;;;;;5034719;28;19925;-44
2023/08/07 10:25:30;;;;;;;;;;;19.00;99.90;;;;;;5031350;28;19971;-43
2023/08/07 10:27:57;;;;;;;;;;;19.10;99.90;;;;;;5017421;28;19925;-43
2023/08/07 10:30:23;;;;;;;;;;;19.20;99.90;;;;;;5038817;28;19932;-43
2023/08/07 10:32:51;;;;;;;;;;;19.10;99.90;;;;;;5046818;28;19924;-44
2023/08/07 10:35:24;;;;;;;;;;;19.00;99.90;;;;;;5051504;28;19974;-43
2023/08/07 10:37:51;;;;;;;;;;;18.70;99.90;;;;;;5051985;28;19924;-43
2023/08/07 10:40:20;;;;;;;;;;;18.60;99.90;;;;;;5044667;28;20425;-43
2023/08/07 10:42:51;;;;;;;;;;;18.50;99.90;;;;;;5051112;28;19925;-43
2023/08/07 10:45:18;;;;;;;;;;;18.50;99.90;;;;;;5051351;28;20406;-43
2023/08/07 10:47:45;;;;;;;;;;;18.50;99.90;;;;;;5052108;28;20285;-44
2023/08/07 10:50:13;;;;;;;;;;;18.70;99.90;;;;;;5049156;28;19932;-44
2023/08/07 10:52:40;;;;;;;;;;;18.90;99.90;;;;;;5052072;28;19928;-43
2023/08/07 10:55:13;;;;;;;;;;;19.00;99.90;;;;;;5051184;28;19932;-43
2023/08/07 10:57:40;;;;;;;;;;;19.00;99.90;;;;;;5033770;28;19925;-43
2023/08/07 11:00:09;;;;;;;;;;;18.80;99.90;;;;;;5037568;28;19925;-43
2023/08/07 11:02:39;;;;;;;;;;;18.70;99.90;;;;;;5051019;28;20442;-44
2023/08/07 11:05:06;;;;;;;;;;;18.50;99.90;;;;;;5051918;28;19955;-43
2023/08/07 11:07:34;;;;;;;;;;;18.50;99.90;;;;;;5051747;28;20356;-44
2023/08/07 11:10:01;;;;;;;;;;;18.40;99.90;;;;;;5041170;28;19932;-43
2023/08/07 11:12:28;;;;;;;;;;;18.30;99.90;;;;;;5051841;28;19925;-43
2023/08/07 11:14:56;;;;;;;;;;;18.20;99.90;;;;;;5051992;28;20354;-43
2023/08/07 11:17:25;;;;;;;;;;;18.30;99.90;;;;;;5050810;28;19991;-44
2023/08/07 11:19:51;;;;;;;;;;;18.50;99.90;;;;;;5047501;28;19978;-44
2023/08/07 11:22:18;;;;;;;;;;;18.80;99.90;;;;;;5050659;28;19925;-44
2023/08/07 11:24:47;;;;;;;;;;;18.90;99.90;;;;;;5051021;28;20296;-44
2023/08/07 11:27:14;;;;;;;;;;;18.80;99.90;;;;;;5040601;28;19925;-43
2023/08/07 11:29:40;;;;;;;;;;;18.70;99.90;;;;;;5024840;28;19925;-43
2023/08/07 11:32:07;;;;;;;;;;;18.60;99.90;;;;;;5032927;28;19925;-43
2023/08/07 11:34:34;;;;;;;;;;;18.70;99.90;;;;;;5034268;28;19929;-43
2023/08/07 11:37:00;;;;;;;;;;;18.80;99.90;;;;;;5033356;28;19929;-43
2023/08/07 11:39:27;;;;;;;;;;;19.00;99.90;;;;;;5033880;28;20346;-44
2023/08/07 11:41:55;;;;;;;;;;;19.00;99.90;;;;;;5031936;28;19932;-44
2023/08/07 11:44:23;;;;;;;;;;;19.00;99.90;;;;;;5034907;28;19979;-45
2023/08/07 11:46:51;;;;;;;;;;;19.00;99.90;;;;;;5033933;28;19932;-44
2023/08/07 11:49:17;;;;;;;;;;;19.00;99.90;;;;;;5033422;28;19929;-44
2023/08/07 11:51:44;;;;;;;;;;;19.00;99.90;;;;;;5033777;28;20331;-44
2023/08/07 11:54:15;;;;;;;;;;;19.00;99.90;;;;;;5032840;28;20462;-44
2023/08/07 11:56:42;;;;;;;;;;;19.10;99.90;;;;;;5034792;28;19987;-43
2023/08/07 11:59:10;;;;;;;;;;;19.10;99.90;;;;;;5034731;28;19925;-44
2023/08/07 12:01:38;;;;;;;;;;;19.10;99.90;;;;;;5034102;28;19959;-45
2023/08/07 12:04:09;;;;;;;;;;;19.10;99.90;;;;;;5034372;28;19929;-44
2023/08/07 12:06:36;;;;;;;;;;;19.10;99.90;;;;;;5032754;28;19936;-44
2023/08/07 12:09:03;;;;;;;;;;;19.10;99.90;;;;;;5032026;28;19925;-44
2023/08/07 12:11:29;;;;;;;;;;;19.10;99.90;;;;;;5033284;28;20282;-44
2023/08/07 12:13:56;;;;;;;;;;;19.20;99.90;;;;;;5031341;28;19929;-44
2023/08/07 12:16:24;;;;;;;;;;;19.30;99.90;;;;;;5033326;28;19932;-44
2023/08/07 12:18:51;;;;;;;;;;;19.30;99.90;;;;;;5033351;28;20456;-44
2023/08/07 12:21:19;;;;;;;;;;;19.30;99.90;;;;;;5034504;28;19929;-44
2023/08/07 12:23:47;;;;;;;;;;;19.20;99.90;;;;;;5034772;28;19925;-44
2023/08/07 12:26:14;;;;;;;;;;;19.10;99.90;;;;;;5032534;28;19925;-44
2023/08/07 12:28:40;;;;;;;;;;;19.00;99.90;;;;;;5032538;28;19925;-44
2023/08/07 12:31:07;;;;;;;;;;;18.90;99.90;;;;;;5034200;28;19933;-44
2023/08/07 12:33:35;;;;;;;;;;;18.70;99.90;;;;;;5032485;28;19933;-44
2023/08/07 12:36:02;;;;;;;;;;;18.60;99.90;;;;;;5033716;28;19971;-44
2023/08/07 12:38:29;;;;;;;;;;;18.50;99.90;;;;;;5030889;28;20011;-44
2023/08/07 12:40:56;;;;;;;;;;;18.30;99.90;;;;;;5031109;28;20291;-44
2023/08/07 12:43:23;;;;;;;;;;;18.30;99.90;;;;;;5031354;28;19929;-44
2023/08/07 12:45:49;;;;;;;;;;;18.30;99.90;;;;;;5023375;28;19925;-43
2023/08/07 12:48:16;;;;;;;;;;;18.30;99.90;;;;;;5032753;28;20373;-44
2023/08/07 12:50:44;;;;;;;;;;;18.30;99.90;;;;;;5030376;28;19932;-43
2023/08/07 12:53:11;;;;;;;;;;;18.40;99.90;;;;;;5032014;28;19971;-44
2023/08/07 12:55:37;;;;;;;;;;;18.50;99.90;;;;;;5049140;28;19933;-44
2023/08/07 12:58:04;;;;;;;;;;;18.50;99.90;;;;;;5032966;28;19975;-44
2023/08/07 13:00:31;;;;;;;;;;;18.60;99.90;;;;;;5032960;28;19925;-44
2023/08/07 13:02:58;;;;;;;;;;;18.50;99.90;;;;;;5033240;28;20475;-44
2023/08/07 13:05:25;;;;;;;;;;;18.50;99.90;;;;;;5033774;28;19929;-44
2023/08/07 13:07:55;;;;;;;;;;;18.40;99.90;;;;;;5033655;28;19929;-44
2023/08/07 13:10:23;;;;;;;;;;;18.40;99.90;;;;;;5033675;28;19925;-44
2023/08/07 13:12:50;;;;;;;;;;;18.60;99.90;;;;;;5032153;28;19926;-44
2023/08/07 13:15:17;;;;;;;;;;;18.80;99.90;;;;;;5048855;28;19929;-44
2023/08/07 13:17:43;;;;;;;;;;;18.90;99.90;;;;;;5048702;28;19929;-43
2023/08/07 13:20:12;;;;;;;;;;;19.00;99.90;;;;;;5033384;28;19925;-44
2023/08/07 13:22:39;;;;;;;;;;;19.00;99.90;;;;;;5033345;28;19925;-44
2023/08/07 13:25:07;;;;;;;;;;;19.00;99.90;;;;;;5030269;28;19925;-45
2023/08/07 13:27:34;;;;;;;;;;;18.90;99.90;;;;;;5032970;28;19933;-44
2023/08/07 13:30:01;;;;;;;;;;;18.90;99.90;;;;;;5032129;28;19929;-43
2023/08/07 13:32:27;;;;;;;;;;;18.80;99.90;;;;;;5030746;28;19929;-44
2023/08/07 13:34:54;;;;;;;;;;;18.80;99.90;;;;;;5033417;28;19933;-44
2023/08/07 13:37:21;;;;;;;;;;;18.90;99.90;;;;;;5031409;28;19925;-44
2023/08/07 13:39:50;;;;;;;;;;;18.90;99.90;;;;;;5037267;28;19928;-45
2023/08/07 13:42:18;;;;;;;;;;;18.90;99.90;;;;;;5052023;28;20446;-44
2023/08/07 13:44:45;;;;;;;;;;;19.00;99.90;;;;;;5052196;28;19924;-45
2023/08/07 13:47:12;;;;;;;;;;;19.20;99.90;;;;;;5052825;28;19932;-45
2023/08/07 13:49:38;;;;;;;;;;;19.30;99.90;;;;;;5050388;28;19924;-44
2023/08/07 13:52:05;;;;;;;;;;;19.40;99.90;;;;;;5032290;28;20373;-43
2023/08/07 13:54:32;;;;;;;;;;;19.60;99.90;;;;;;5032784;28;20380;-44
2023/08/07 13:56:59;;;;;;;;;;;19.80;99.90;;;;;;5037683;28;20019;-45
2023/08/07 13:59:27;;;;;;;;;;;20.00;99.90;;;;;;5051663;28;19971;-45
2023/08/07 14:01:55;;;;;;;;;;;20.10;99.90;;;;;;5037973;28;19925;-43
2023/08/07 14:04:22;;;;;;;;;;;20.10;99.90;;;;;;5031828;28;19932;-44
2023/08/07 14:06:49;;;;;;;;;;;19.90;99.90;;;;;;5030454;28;19929;-44
2023/08/07 14:09:18;;;;;;;;;;;19.70;99.90;;;;;;5032609;28;20004;-46
2023/08/07 14:11:44;;;;;;;;;;;19.30;99.90;;;;;;5030936;28;20040;-46
2023/08/07 14:14:11;;;;;;;;;;;19.00;99.90;;;;;;5051106;28;19925;-45
2023/08/07 14:16:39;;;;;;;;;;;18.60;99.90;;;;;;5052613;28;19929;-43